Aviation Digital Data Service (ADDS)

Output produced by METARs form (1620 UTC 31 October 2014)
found at http://aviationweather.gov/adds/metars/
 
KRWI 311140Z 3112/0112 01007KT P6SM BKN250 
     FM312100 03003KT P6SM SCT025 BKN150